Time;durP1;ratioP1;P1;durP2;ratioP2;P2;SDS_P1;SDS_P2;PMS_P1;PMS_P2;Temp;Humidity;BMP_temperature;BMP_pressure;BME280_temperature;BME280_humidity;BME280_pressure;Samples;Min_cycle;Max_cycle;Signal;HPM_P1;HPM_P2
2022/10/10 00:01:16;;;;;;;6.47;5.88;;;;;;;5.29;92.18;101538.44;6191555;23;20073;-73
2022/10/10 00:03:43;;;;;;;17.38;6.07;;;;;;;5.25;91.89;101530.53;6191402;23;20017;-74
2022/10/10 00:06:11;;;;;;;6.85;5.70;;;;;;;5.26;92.74;101528.66;6191559;23;20092;-74
2022/10/10 00:08:38;;;;;;;7.25;5.85;;;;;;;5.27;92.28;101524.88;6190852;23;20078;-74
2022/10/10 00:11:06;;;;;;;11.07;5.88;;;;;;;5.27;92.86;101530.91;6191309;23;20060;-73
2022/10/10 00:13:33;;;;;;;11.88;6.22;;;;;;;5.27;93.44;101522.25;6191755;23;20448;-73
2022/10/10 00:15:59;;;;;;;8.52;5.95;;;;;;;5.26;93.40;101528.66;6191566;23;20088;-74
2022/10/10 00:18:26;;;;;;;8.60;5.70;;;;;;;5.27;93.33;101525.63;6191729;23;20018;-73
2022/10/10 00:20:52;;;;;;;6.47;5.80;;;;;;;5.28;93.90;101531.66;6191565;23;20077;-74
2022/10/10 00:23:19;;;;;;;9.77;6.07;;;;;;;5.30;93.87;101532.03;6191077;23;20100;-74
2022/10/10 00:25:48;;;;;;;9.35;6.03;;;;;;;5.28;93.68;101527.13;6191601;23;20017;-74
2022/10/10 00:28:14;;;;;;;9.02;6.43;;;;;;;5.28;93.41;101523.75;6191606;23;20430;-74
2022/10/10 00:30:41;;;;;;;6.63;5.72;;;;;;;5.27;93.81;101530.16;6190551;23;20022;-74
2022/10/10 00:33:08;;;;;;;8.10;5.47;;;;;;;5.28;93.85;101521.09;6191419;23;20105;-74
2022/10/10 00:35:34;;;;;;;6.72;5.30;;;;;;;5.28;93.80;101521.84;6191526;23;20093;-74
2022/10/10 00:38:01;;;;;;;5.88;5.32;;;;;;;5.28;93.65;101521.09;6190817;23;20081;-74
2022/10/10 00:40:27;;;;;;;5.88;5.20;;;;;;;5.28;94.04;101521.09;6201229;23;20558;-74
2022/10/10 00:42:54;;;;;;;6.47;5.78;;;;;;;5.26;94.25;101508.28;6221733;23;20040;-74
2022/10/10 00:45:38;;;;;;;6.97;5.43;;;;;;;5.29;94.26;101506.75;6194718;23;20100;-74
2022/10/10 00:48:13;;;;;;;6.65;5.70;;;;;;;5.28;94.67;101506.00;6221653;23;20013;-74
2022/10/10 00:50:54;;;;;;;6.07;5.47;;;;;;;5.29;94.60;101502.25;6221023;23;20458;-74
2022/10/10 00:53:26;;;;;;;7.15;5.97;;;;;;;5.29;94.75;101504.13;6194889;23;20031;-74
2022/10/10 00:55:53;;;;;;;8.10;5.72;;;;;;;5.30;94.85;101500.34;6221536;23;20088;-74
2022/10/10 00:58:20;;;;;;;6.80;6.00;;;;;;;5.28;94.48;101495.44;6221865;23;20044;-74
2022/10/10 01:00:46;;;;;;;6.18;5.60;;;;;;;5.29;94.39;101493.56;6221514;23;20088;-74
2022/10/10 01:03:13;;;;;;;10.50;6.10;;;;;;;5.29;94.87;101496.97;6221488;23;20113;-74
2022/10/10 01:05:42;;;;;;;6.93;6.18;;;;;;;5.30;95.05;101497.72;6194566;23;20017;-74
2022/10/10 01:08:09;;;;;;;15.95;5.97;;;;;;;5.30;94.85;101497.72;6221520;23;20088;-74
2022/10/10 01:10:50;;;;;;;9.25;5.95;;;;;;;5.30;94.73;101492.44;6221370;23;20116;-74
2022/10/10 01:13:33;;;;;;;10.70;6.20;;;;;;;5.30;94.63;101487.16;6221724;23;20426;-74
2022/10/10 01:16:23;;;;;;;9.35;5.30;;;;;;;5.31;95.13;101491.28;6221673;23;20044;-74
2022/10/10 01:19:01;;;;;;;8.65;6.40;;;;;;;5.32;95.21;101487.53;6221610;23;20455;-74
2022/10/10 01:22:13;;;;;;;9.60;6.25;;;;;;;5.32;95.09;101484.88;6220950;23;20084;-74
2022/10/10 01:25:18;;;;;;;6.05;5.45;;;;;;;5.32;95.04;101480.34;6221514;23;20021;-74
2022/10/10 01:27:51;;;;;;;7.22;5.60;;;;;;;5.34;95.45;101479.97;6145278;23;20017;-74
2022/10/10 01:30:23;;;;;;;7.50;5.72;;;;;;;5.34;95.66;101488.63;6221454;23;20013;-74
2022/10/10 01:33:05;;;;;;;7.18;5.40;;;;;;;5.35;95.87;101484.13;6221369;23;20092;-74
2022/10/10 01:35:31;;;;;;;6.28;5.57;;;;;;;5.35;95.67;101478.84;6220902;23;20518;-74
2022/10/10 01:38:15;;;;;;;7.30;5.47;;;;;;;5.35;96.00;101468.28;6221420;23;20148;-74
2022/10/10 01:41:29;;;;;;;5.72;5.28;;;;;;;5.37;95.61;101468.63;6220848;23;20092;-74
2022/10/10 01:43:57;;;;;;;6.82;5.53;;;;;;;5.41;96.35;101473.91;6046121;23;20070;-74
2022/10/10 01:46:23;;;;;;;7.63;6.22;;;;;;;5.44;96.58;101470.50;6070717;23;20029;-74
2022/10/10 01:48:53;;;;;;;11.70;6.15;;;;;;;5.44;96.72;101470.50;6045887;23;20111;-74
2022/10/10 01:51:46;;;;;;;9.40;6.25;;;;;;;5.45;96.36;101469.34;6046196;23;20098;-74
2022/10/10 01:54:45;;;;;;;7.55;6.22;;;;;;;5.47;96.69;101462.56;6070318;23;20106;-74
2022/10/10 01:57:21;;;;;;;7.35;5.70;;;;;;;5.49;96.88;101462.91;6070722;23;20095;-74
2022/10/10 01:59:54;;;;;;;8.77;6.47;;;;;;;5.51;97.04;101451.97;6046622;23;20058;-74
2022/10/10 02:02:27;;;;;;;10.65;6.10;;;;;;;5.53;97.13;101447.06;6070254;23;20050;-74
2022/10/10 02:05:14;;;;;;;6.88;6.00;;;;;;;5.58;96.89;101444.00;6045868;23;20055;-74
2022/10/10 02:07:43;;;;;;;7.13;5.82;;;;;;;5.59;97.09;101443.63;6070508;23;20534;-74
2022/10/10 02:10:12;;;;;;;10.85;6.25;;;;;;;5.59;97.31;101451.53;6070455;23;20030;-74
2022/10/10 02:12:39;;;;;;;6.88;6.18;;;;;;;5.64;97.68;101442.44;6046735;23;20150;-74
2022/10/10 02:15:13;;;;;;;7.45;5.97;;;;;;;5.65;97.38;101442.03;6175802;23;20084;-74
2022/10/10 02:17:42;;;;;;;8.27;5.88;;;;;;;5.67;97.78;101431.09;6220578;23;20092;-74
2022/10/10 02:20:11;;;;;;;6.32;5.55;;;;;;;5.69;97.63;101434.84;6221342;23;20088;-74
2022/10/10 02:22:40;;;;;;;7.93;6.05;;;;;;;5.73;98.07;101434.06;6221196;23;20088;-74
2022/10/10 02:25:07;;;;;;;8.43;5.75;;;;;;;5.74;97.93;101428.41;6221237;23;20047;-74
2022/10/10 02:27:44;;;;;;;7.13;6.22;;;;;;;5.75;97.82;101431.78;6221001;23;20449;-74
2022/10/10 02:30:12;;;;;;;11.18;6.43;;;;;;;5.78;98.36;101423.84;6194289;23;20087;-74
2022/10/10 02:32:49;;;;;;;6.47;5.75;;;;;;;5.92;98.83;101421.13;6220338;23;20027;-74
2022/10/10 02:35:21;;;;;;;7.93;6.03;;;;;;;5.92;98.16;101413.19;6221045;23;20009;-74
2022/10/10 02:37:50;;;;;;;9.55;6.20;;;;;;;5.97;98.48;101417.31;6221013;23;20479;-74
2022/10/10 02:40:21;;;;;;;6.47;5.88;;;;;;;6.02;98.39;101408.94;6220573;23;20023;-74
2022/10/10 02:42:50;;;;;;;7.20;6.15;;;;;;;6.07;98.60;101408.53;6221301;23;20013;-74
2022/10/10 02:45:18;;;;;;;8.50;6.45;;;;;;;6.18;98.66;101409.19;6220948;23;20017;-74
2022/10/10 02:47:45;;;;;;;7.13;6.40;;;;;;;6.21;98.18;101408.41;6193777;23;20466;-74
2022/10/10 02:50:12;;;;;;;11.68;6.85;;;;;;;6.18;98.11;101405.78;6220914;23;20009;-74
2022/10/10 02:52:38;;;;;;;6.55;5.90;;;;;;;6.18;98.13;101403.91;6221130;23;20121;-75
2022/10/10 02:55:05;;;;;;;10.40;6.35;;;;;;;6.17;97.97;101399.75;6222011;23;20040;-74
2022/10/10 02:57:31;;;;;;;9.27;6.38;;;;;;;6.18;98.02;101401.25;6222308;23;20396;-74
2022/10/10 02:59:58;;;;;;;7.63;6.18;;;;;;;6.21;98.12;101408.41;6222144;23;20415;-74
2022/10/10 03:02:24;;;;;;;7.40;6.00;;;;;;;6.24;98.04;101397.03;6194608;23;20012;-74
2022/10/10 03:04:51;;;;;;;10.75;6.80;;;;;;;6.26;98.27;101388.72;6195344;23;20480;-74
2022/10/10 03:07:17;;;;;;;8.20;6.10;;;;;;;6.28;98.03;101389.81;6222034;23;20451;-74
2022/10/10 03:09:44;;;;;;;11.45;6.45;;;;;;;6.29;98.24;101387.94;6222142;23;20025;-74
2022/10/10 03:12:10;;;;;;;8.93;6.10;;;;;;;6.29;98.35;101390.56;6222089;23;20429;-74
2022/10/10 03:14:36;;;;;;;7.57;6.45;;;;;;;6.30;98.02;101392.06;6222059;23;20092;-74
2022/10/10 03:17:03;;;;;;;9.13;6.03;;;;;;;6.33;98.26;101389.41;6221375;23;20020;-74
2022/10/10 03:19:29;;;;;;;10.07;6.35;;;;;;;6.38;97.89;101390.88;6222021;23;20013;-74
2022/10/10 03:21:56;;;;;;;7.18;6.30;;;;;;;6.39;97.62;101391.63;6221999;23;20009;-74
2022/10/10 03:24:22;;;;;;;9.25;6.82;;;;;;;6.35;97.71;101392.41;6221968;23;20498;-74
2022/10/10 03:26:49;;;;;;;8.30;6.60;;;;;;;6.34;97.94;101392.78;6195094;23;20100;-74
2022/10/10 03:29:15;;;;;;;8.13;6.38;;;;;;;6.35;97.91;101394.28;6221957;23;20017;-74
2022/10/10 03:31:42;;;;;;;7.22;6.43;;;;;;;6.36;97.81;101393.16;6221369;23;20023;-73
2022/10/10 03:34:08;;;;;;;12.30;6.78;;;;;;;6.35;97.54;101392.41;6221764;23;20090;-74
2022/10/10 03:36:35;;;;;;;10.77;6.63;;;;;;;6.35;97.85;101395.03;6221997;23;20104;-74
2022/10/10 03:39:02;;;;;;;6.47;5.82;;;;;;;6.35;97.99;101387.09;6221984;23;20014;-74
2022/10/10 03:41:29;;;;;;;7.47;6.43;;;;;;;6.37;97.86;101392.00;6221808;23;20080;-74
2022/10/10 03:43:55;;;;;;;11.85;6.28;;;;;;;6.39;97.80;101388.97;6222088;23;20080;-74
2022/10/10 03:46:22;;;;;;;8.25;6.57;;;;;;;6.40;97.87;101388.53;6221366;23;20088;-74
2022/10/10 03:48:48;;;;;;;7.25;6.38;;;;;;;6.38;97.90;101388.22;6221926;23;20017;-74
2022/10/10 03:51:15;;;;;;;7.95;6.95;;;;;;;6.38;97.71;101393.50;6221995;23;20040;-74
2022/10/10 03:53:41;;;;;;;14.75;6.47;;;;;;;6.42;97.76;101388.91;6221964;23;20439;-74
2022/10/10 03:56:08;;;;;;;7.95;6.45;;;;;;;6.40;97.79;101387.81;6222004;23;20029;-73
2022/10/10 03:58:34;;;;;;;8.45;6.28;;;;;;;6.36;97.47;101393.16;6221882;23;20098;-74
2022/10/10 04:01:02;;;;;;;11.02;6.78;;;;;;;6.32;97.55;101387.16;6221366;23;20085;-74
2022/10/10 04:03:29;;;;;;;8.82;6.65;;;;;;;6.30;97.37;101387.53;6221739;23;20013;-73
2022/10/10 04:05:55;;;;;;;11.30;6.72;;;;;;;6.29;97.89;101383.38;6195107;23;20092;-74
2022/10/10 04:08:23;;;;;;;9.88;6.97;;;;;;;6.29;97.55;101391.31;6221582;23;20104;-74
2022/10/10 04:10:51;;;;;;;12.18;6.60;;;;;;;6.25;97.45;101382.69;6221766;23;20048;-74
2022/10/10 04:13:18;;;;;;;9.10;7.30;;;;;;;6.20;97.30;101385.75;6221218;23;20096;-74
2022/10/10 04:15:47;;;;;;;11.85;6.85;;;;;;;6.20;97.37;101391.03;6221616;23;20017;-74
2022/10/10 04:18:13;;;;;;;12.30;6.35;;;;;;;6.18;97.39;101388.03;6221813;23;20045;-74
2022/10/10 04:20:39;;;;;;;9.98;6.55;;;;;;;6.17;97.56;101383.13;6221886;23;20100;-74
2022/10/10 04:23:06;;;;;;;7.80;6.00;;;;;;;6.18;97.76;101380.09;6221839;23;20498;-73
2022/10/10 04:25:32;;;;;;;7.18;6.47;;;;;;;6.13;97.65;101383.16;6221738;23;20017;-74
2022/10/10 04:27:59;;;;;;;10.48;6.60;;;;;;;6.11;97.59;101385.44;6221279;23;20096;-74
2022/10/10 04:30:31;;;;;;;9.63;6.82;;;;;;;6.06;97.42;101379.84;6194752;23;20021;-74
2022/10/10 04:32:58;;;;;;;11.70;6.50;;;;;;;6.05;97.36;101380.97;6221719;23;20140;-74
2022/10/10 04:35:24;;;;;;;7.15;6.20;;;;;;;6.03;97.89;101376.09;6221695;23;20155;-74
2022/10/10 04:37:52;;;;;;;7.10;6.40;;;;;;;6.01;97.70;101381.00;6221552;23;20041;-74
2022/10/10 04:40:18;;;;;;;8.18;6.75;;;;;;;5.97;97.43;101375.03;6221272;23;20013;-74
2022/10/10 04:42:51;;;;;;;9.50;6.57;;;;;;;5.91;97.29;101371.31;6221208;23;20430;-74
2022/10/10 04:45:18;;;;;;;11.13;6.82;;;;;;;5.87;97.40;101381.13;6221569;23;20021;-74
2022/10/10 04:47:44;;;;;;;8.48;6.68;;;;;;;5.85;96.92;101375.47;6221596;23;20041;-74
2022/10/10 04:50:11;;;;;;;8.13;6.80;;;;;;;5.81;96.96;101372.13;6221329;23;20020;-74
2022/10/10 04:52:37;;;;;;;11.68;6.68;;;;;;;5.77;96.61;101374.78;6221363;23;20024;-74
2022/10/10 04:55:04;;;;;;;14.40;7.22;;;;;;;5.76;96.30;101377.81;6194870;23;20024;-74
2022/10/10 04:57:31;;;;;;;8.65;7.38;;;;;;;5.72;96.49;101374.44;6220960;23;20013;-74
2022/10/10 04:59:57;;;;;;;7.60;6.68;;;;;;;5.70;96.53;101377.47;6221437;23;20449;-74
2022/10/10 05:02:23;;;;;;;7.20;6.32;;;;;;;5.67;96.41;101375.63;6194835;23;20040;-74
2022/10/10 05:04:50;;;;;;;11.52;6.78;;;;;;;5.62;96.80;101374.16;6221469;23;20443;-74
2022/10/10 05:07:16;;;;;;;8.82;6.82;;;;;;;5.60;96.37;101375.66;6221445;23;20020;-74
2022/10/10 05:09:43;;;;;;;8.30;6.80;;;;;;;5.57;96.12;101373.84;6221543;23;20100;-73
2022/10/10 05:12:09;;;;;;;8.60;5.93;;;;;;;5.55;96.52;101374.22;6220918;23;20104;-73
2022/10/10 05:14:35;;;;;;;7.93;6.65;;;;;;;5.55;96.75;101363.66;6221673;23;20032;-73
2022/10/10 05:17:02;;;;;;;7.50;6.80;;;;;;;5.54;96.46;101370.06;6221182;23;20431;-73
2022/10/10 05:19:28;;;;;;;7.65;6.40;;;;;;;5.55;96.87;101368.19;6195015;23;20491;-73
2022/10/10 05:21:54;;;;;;;12.30;6.55;;;;;;;5.54;97.04;101356.88;6221513;23;20013;-73
2022/10/10 05:24:21;;;;;;;7.40;6.60;;;;;;;5.55;97.21;101365.53;6221459;23;20451;-73
2022/10/10 05:26:48;;;;;;;7.78;6.95;;;;;;;5.51;97.42;101357.66;6221033;23;20092;-73
2022/10/10 05:29:14;;;;;;;8.10;6.55;;;;;;;5.50;96.99;101358.78;6221641;23;20055;-73
2022/10/10 05:31:41;;;;;;;7.32;6.60;;;;;;;5.49;97.22;101359.19;6221285;23;20499;-73
2022/10/10 05:34:12;;;;;;;12.02;6.68;;;;;;;5.48;97.24;101360.31;6221200;23;20021;-73
2022/10/10 05:36:42;;;;;;;9.32;6.78;;;;;;;5.46;97.41;101360.69;6221608;23;20494;-73
2022/10/10 05:39:08;;;;;;;7.85;6.75;;;;;;;5.46;97.50;101363.34;6221231;23;20455;-73
2022/10/10 05:41:35;;;;;;;7.97;6.80;;;;;;;5.44;97.14;101362.97;6220484;23;20052;-73
2022/10/10 05:44:02;;;;;;;8.32;6.45;;;;;;;5.43;97.18;101358.09;6221421;23;20092;-73
2022/10/10 05:46:28;;;;;;;10.80;6.78;;;;;;;5.43;97.46;101366.75;6221232;23;20096;-75
2022/10/10 05:48:54;;;;;;;9.35;6.80;;;;;;;5.45;97.32;101367.13;6221247;23;20013;-74
2022/10/10 05:51:21;;;;;;;8.90;6.75;;;;;;;5.40;96.90;101364.88;6221339;23;20503;-73
2022/10/10 05:53:47;;;;;;;7.75;6.95;;;;;;;5.40;97.32;101377.34;6221158;23;20458;-73
2022/10/10 05:56:15;;;;;;;11.85;6.88;;;;;;;5.39;97.06;101375.84;6220799;23;20458;-73
2022/10/10 05:58:43;;;;;;;8.70;6.75;;;;;;;5.38;97.11;101377.72;6221503;23;20041;-74
2022/10/10 06:01:10;;;;;;;7.95;6.70;;;;;;;5.36;97.19;101380.75;6221288;23;20025;-73
2022/10/10 06:03:36;;;;;;;12.68;7.05;;;;;;;5.36;96.94;101378.13;6221334;23;20025;-73
2022/10/10 06:06:03;;;;;;;12.07;6.65;;;;;;;5.32;96.95;101387.94;6221277;23;20080;-73
2022/10/10 06:08:31;;;;;;;10.13;6.75;;;;;;;5.29;96.68;101387.97;6221271;23;20071;-74
2022/10/10 06:11:03;;;;;;;7.05;6.45;;;;;;;5.30;96.52;101381.53;6220650;23;20407;-73
2022/10/10 06:13:29;;;;;;;9.77;6.72;;;;;;;5.32;96.53;101381.91;6221318;23;20128;-74
2022/10/10 06:15:56;;;;;;;9.93;6.30;;;;;;;5.33;96.46;101376.25;6221088;23;20446;-74
2022/10/10 06:18:23;;;;;;;7.22;6.30;;;;;;;5.33;96.36;101378.13;6221324;23;20116;-73
2022/10/10 06:20:49;;;;;;;8.00;6.47;;;;;;;5.33;96.45;101381.53;6220900;23;20017;-75
2022/10/10 06:23:17;;;;;;;7.22;6.53;;;;;;;5.33;96.54;101380.78;6221147;23;20489;-75
2022/10/10 06:25:43;;;;;;;11.00;6.63;;;;;;;5.31;96.03;101383.06;6220572;23;20036;-73
2022/10/10 06:28:10;;;;;;;9.65;6.25;;;;;;;5.31;96.04;101380.41;6220444;23;20040;-74
2022/10/10 06:30:47;;;;;;;10.05;6.65;;;;;;;5.32;95.89;101384.56;6221061;23;20016;-74
2022/10/10 06:33:14;;;;;;;7.13;5.85;;;;;;;5.35;96.08;101379.25;6220988;23;20063;-73
2022/10/10 06:35:42;;;;;;;7.25;6.60;;;;;;;5.39;96.39;101376.59;6221093;23;20095;-74
2022/10/10 06:38:09;;;;;;;6.93;6.28;;;;;;;5.45;96.49;101392.78;6194014;23;20502;-73
2022/10/10 06:40:36;;;;;;;8.30;6.90;;;;;;;5.50;97.01;101387.84;6220548;23;20486;-74
2022/10/10 06:43:03;;;;;;;8.70;6.40;;;;;;;5.55;97.08;101386.69;6221103;23;20398;-74
2022/10/10 06:45:34;;;;;;;7.65;6.63;;;;;;;5.60;97.54;101392.28;6193707;23;20474;-73
2022/10/10 06:48:01;;;;;;;7.28;6.57;;;;;;;5.64;97.59;101393.00;6194494;23;20088;-74
2022/10/10 06:50:27;;;;;;;8.63;6.65;;;;;;;5.73;98.10;101387.28;6220883;23;20148;-73
2022/10/10 06:52:54;;;;;;;7.78;7.03;;;;;;;5.86;98.62;101395.47;6220245;23;20112;-73
2022/10/10 06:55:20;;;;;;;7.68;6.72;;;;;;;6.00;98.93;101396.13;6220874;23;20020;-74
2022/10/10 06:57:46;;;;;;;10.10;6.38;;;;;;;6.13;99.28;101406.22;6220865;23;20084;-73
2022/10/10 07:00:13;;;;;;;10.35;6.70;;;;;;;6.26;99.70;101404.59;6220718;23;20083;-75
2022/10/10 07:02:40;;;;;;;7.88;6.32;;;;;;;6.39;99.90;101408.22;6220658;23;20096;-73
2022/10/10 07:05:10;;;;;;;8.57;6.78;;;;;;;6.56;100.00;101409.91;6220768;23;20095;-74
2022/10/10 07:07:38;;;;;;;8.38;7.07;;;;;;;6.74;100.00;101412.38;6220161;23;20052;-74
2022/10/10 07:10:06;;;;;;;13.40;6.20;;;;;;;6.91;100.00;101405.34;6220674;23;20037;-75
2022/10/10 07:12:33;;;;;;;7.50;6.70;;;;;;;7.07;100.00;101402.88;6220639;23;20402;-75
2022/10/10 07:15:10;;;;;;;8.27;6.72;;;;;;;7.23;100.00;101403.00;6220694;23;20069;-75
2022/10/10 07:17:37;;;;;;;9.75;6.43;;;;;;;7.36;100.00;101405.88;6220562;23;20080;-75
2022/10/10 07:20:04;;;;;;;9.45;7.32;;;;;;;7.45;100.00;101408.78;6220613;23;20013;-75
2022/10/10 07:22:30;;;;;;;8.23;6.82;;;;;;;7.54;100.00;101411.66;6220013;23;20048;-75
2022/10/10 07:24:57;;;;;;;10.55;7.35;;;;;;;7.66;100.00;101415.63;6220525;23;20036;-73
2022/10/10 07:27:23;;;;;;;8.32;6.53;;;;;;;7.85;100.00;101414.22;6220552;23;20045;-74
2022/10/10 07:29:49;;;;;;;12.63;6.60;;;;;;;8.01;100.00;101416.94;6220484;23;20101;-73
2022/10/10 07:32:16;;;;;;;6.88;6.28;;;;;;;8.20;100.00;101412.84;6220457;23;20049;-74
2022/10/10 07:34:42;;;;;;;7.53;6.63;;;;;;;8.37;99.68;101424.34;6220515;23;20020;-74
2022/10/10 07:37:09;;;;;;;8.80;6.57;;;;;;;8.52;99.25;101414.94;6193011;23;20112;-74
2022/10/10 07:39:35;;;;;;;10.45;6.30;;;;;;;8.60;98.45;101417.06;6221398;23;20013;-74
2022/10/10 07:42:02;;;;;;;8.88;6.68;;;;;;;8.74;98.05;101416.03;6221635;23;20048;-73
2022/10/10 07:44:28;;;;;;;11.27;7.32;;;;;;;8.90;98.11;101413.41;6222007;23;20013;-74
2022/10/10 07:47:00;;;;;;;8.63;7.18;;;;;;;9.10;97.19;101418.69;6221924;23;20021;-74
2022/10/10 07:49:26;;;;;;;12.48;6.78;;;;;;;9.25;96.79;101419.13;6194812;23;20576;-73
2022/10/10 07:51:53;;;;;;;9.90;6.82;;;;;;;9.38;96.53;101422.63;6221204;23;20017;-74
2022/10/10 07:54:27;;;;;;;10.88;6.90;;;;;;;9.43;95.65;101418.72;6194998;23;20063;-74
2022/10/10 07:56:53;;;;;;;11.23;5.97;;;;;;;9.45;95.77;101419.81;6221864;23;20067;-74
2022/10/10 07:59:20;;;;;;;14.85;7.00;;;;;;;9.51;95.52;101430.69;6221815;23;20113;-74
2022/10/10 08:01:47;;;;;;;8.32;6.20;;;;;;;9.58;94.77;101433.94;6221630;23;20017;-74
2022/10/10 08:04:13;;;;;;;11.48;6.65;;;;;;;9.60;94.30;101436.16;6195181;23;20535;-74
2022/10/10 08:06:39;;;;;;;8.18;6.57;;;;;;;9.61;94.64;101435.75;6221185;23;20084;-74
2022/10/10 08:09:06;;;;;;;8.38;6.25;;;;;;;9.66;94.39;101447.78;6221826;23;20025;-74
2022/10/10 08:11:32;;;;;;;7.95;6.97;;;;;;;9.75;93.99;101441.91;6221613;23;20116;-74
2022/10/10 08:13:59;;;;;;;11.18;6.70;;;;;;;9.89;93.93;101450.28;6221771;23;20028;-74
2022/10/10 08:16:26;;;;;;;7.38;6.45;;;;;;;10.09;93.13;101444.84;6221824;23;20096;-73
2022/10/10 08:18:52;;;;;;;12.15;6.18;;;;;;;10.29;91.87;101450.09;6221759;23;20093;-74
2022/10/10 08:21:19;;;;;;;10.52;6.43;;;;;;;10.54;92.03;101447.50;6221024;23;20434;-74
2022/10/10 08:23:45;;;;;;;9.27;6.05;;;;;;;10.76;91.39;101447.69;6221448;23;20092;-74
2022/10/10 08:26:13;;;;;;;10.50;6.15;;;;;;;11.03;90.92;101444.63;6221663;23;20044;-74
2022/10/10 08:28:40;;;;;;;10.75;6.50;;;;;;;11.34;89.36;101439.53;6221680;23;20049;-74
2022/10/10 08:31:08;;;;;;;11.85;6.22;;;;;;;11.66;88.73;101444.59;6221608;23;20021;-74
2022/10/10 08:33:36;;;;;;;9.93;6.32;;;;;;;11.92;86.37;101444.59;6221317;23;20057;-74
2022/10/10 08:36:07;;;;;;;7.25;6.00;;;;;;;12.18;85.92;101446.00;6220900;23;20431;-74
2022/10/10 08:38:34;;;;;;;11.45;6.13;;;;;;;12.41;85.05;101446.72;6221753;23;20037;-74
2022/10/10 08:41:24;;;;;;;6.57;5.60;;;;;;;12.56;84.08;101450.41;6221226;23;20041;-74
2022/10/10 08:43:59;;;;;;;10.00;5.43;;;;;;;12.56;83.76;101447.75;6221685;23;20080;-74
2022/10/10 08:46:32;;;;;;;6.95;5.13;;;;;;;12.67;83.27;101451.53;6221575;23;20024;-75
2022/10/10 08:49:10;;;;;;;10.40;5.75;;;;;;;12.83;82.57;101452.50;6220952;23;20421;-74
2022/10/10 08:51:45;;;;;;;7.45;5.57;;;;;;;12.97;82.47;101451.97;6194092;23;20021;-74
2022/10/10 08:54:13;;;;;;;8.00;5.10;;;;;;;13.13;82.89;101456.38;6221558;23;20024;-75
2022/10/10 08:56:40;;;;;;;7.32;5.50;;;;;;;13.29;81.75;101462.22;6221624;23;20026;-75
2022/10/10 08:59:27;;;;;;;5.50;5.00;;;;;;;13.51;81.52;101462.16;6221541;23;20494;-75
2022/10/10 09:02:40;;;;;;;11.95;5.38;;;;;;;13.47;80.99;101466.91;6221587;23;20100;-75
2022/10/10 09:05:40;;;;;;;11.18;4.85;;;;;;;13.40;80.15;101469.09;6220398;23;20020;-75
2022/10/10 09:08:41;;;;;;;14.13;5.63;;;;;;;13.28;80.33;101460.00;6221686;23;20020;-75
2022/10/10 09:11:26;;;;;;;6.07;4.90;;;;;;;13.21;80.77;101465.59;6221438;23;20099;-75
2022/10/10 09:13:59;;;;;;;7.10;4.85;;;;;;;13.18;80.44;101471.88;6221570;23;20116;-75
2022/10/10 09:16:39;;;;;;;6.35;5.70;;;;;;;13.14;80.78;101468.53;6221450;23;20045;-75
2022/10/10 09:19:38;;;;;;;10.50;5.20;;;;;;;13.14;81.05;101473.91;6220825;23;20086;-75
2022/10/10 09:22:13;;;;;;;9.70;5.78;;;;;;;13.12;81.12;101466.31;6070275;23;20424;-75
2022/10/10 09:25:21;;;;;;;10.75;5.22;;;;;;;13.13;81.03;101469.72;6070693;23;20027;-75
2022/10/10 09:28:14;;;;;;;5.78;5.22;;;;;;;13.13;81.39;101475.81;5984534;23;20052;-75
2022/10/10 09:30:58;;;;;;;8.75;6.00;;;;;;;13.12;81.46;101468.25;5984073;23;20081;-75
2022/10/10 09:33:51;;;;;;;6.10;5.55;;;;;;;13.14;81.43;101476.56;5984270;23;20103;-74
2022/10/10 09:36:23;;;;;;;11.23;5.43;;;;;;;13.16;82.04;101474.22;5985061;23;20096;-74
2022/10/10 09:38:54;;;;;;;8.85;7.07;;;;;;;13.16;80.73;101474.22;5984934;23;20099;-74
2022/10/10 09:41:42;;;;;;;10.65;6.10;;;;;;;13.17;81.80;101476.47;6005204;23;20230;-75
2022/10/10 09:44:11;;;;;;;9.52;5.97;;;;;;;13.16;80.89;101488.34;6013360;23;20578;-75
2022/10/10 09:46:37;;;;;;;11.27;6.13;;;;;;;13.17;81.95;101491.75;6012388;23;20105;-75
2022/10/10 09:49:04;;;;;;;9.68;6.22;;;;;;;13.25;82.17;101491.03;6013355;23;20103;-74
2022/10/10 09:51:32;;;;;;;12.13;6.18;;;;;;;13.32;81.86;101484.69;6012874;23;20110;-75
2022/10/10 09:53:58;;;;;;;11.85;6.38;;;;;;;13.38;81.64;101485.59;6012992;23;20153;-75
2022/10/10 09:56:29;;;;;;;11.50;7.18;;;;;;;13.46;81.79;101492.16;6013303;23;20048;-74
2022/10/10 09:58:57;;;;;;;13.40;7.53;;;;;;;13.53;81.05;101493.81;6121195;23;20108;-75
2022/10/10 10:01:29;;;;;;;7.05;6.30;;;;;;;13.60;80.91;101494.28;6220651;23;20698;-74
2022/10/10 10:04:09;;;;;;;10.02;6.22;;;;;;;13.68;81.05;101506.19;6221235;23;20088;-74
2022/10/10 10:07:04;;;;;;;8.73;5.72;;;;;;;13.72;80.66;101510.66;6221207;23;20024;-75
2022/10/10 10:09:31;;;;;;;16.02;6.18;;;;;;;13.73;80.62;101507.53;6221279;23;20041;-75
2022/10/10 10:11:58;;;;;;;10.65;5.40;;;;;;;13.89;80.79;101509.22;6221133;23;20087;-74
2022/10/10 10:14:31;;;;;;;9.68;5.53;;;;;;;14.00;80.27;101514.88;6221327;23;20028;-75
2022/10/10 10:17:09;;;;;;;6.43;5.65;;;;;;;14.05;79.57;101516.97;6220600;23;20096;-75
2022/10/10 10:19:41;;;;;;;10.05;5.80;;;;;;;14.09;79.44;101514.91;6221329;23;20450;-75
2022/10/10 10:22:33;;;;;;;6.90;5.88;;;;;;;14.15;79.45;101518.47;6194375;23;20075;-75
2022/10/10 10:25:20;;;;;;;;;;;;;;;14.19;80.06;101519.06;6221640;23;20474;-74
2022/10/10 10:27:46;;;;;;;11.02;5.88;;;;;;;14.24;79.94;101531.13;6220887;23;19955;-75
2022/10/10 10:30:24;;;;;;;12.25;5.63;;;;;;;14.28;79.35;101534.41;6220637;23;20493;-74
2022/10/10 10:33:24;;;;;;;9.00;6.38;;;;;;;14.30;79.46;101545.44;6220966;23;20482;-74
2022/10/10 10:36:04;;;;;;;7.18;5.75;;;;;;;14.41;79.31;101547.63;6194388;23;20477;-75
2022/10/10 10:38:51;;;;;;;7.25;5.03;;;;;;;14.57;78.73;101544.69;6221016;23;20047;-75
2022/10/10 10:41:36;;;;;;;9.43;6.13;;;;;;;14.59;78.64;101545.75;6220675;23;20427;-74
2022/10/10 10:44:33;;;;;;;10.50;5.88;;;;;;;14.70;78.59;101541.88;6169498;23;20088;-75
2022/10/10 10:47:18;;;;;;;7.68;5.43;;;;;;;14.85;79.29;101538.13;6193384;23;20473;-75
2022/10/10 10:50:24;;;;;;;7.13;6.30;;;;;;;14.91;77.80;101533.63;6220888;23;20463;-75
2022/10/10 10:53:14;;;;;;;11.75;6.13;;;;;;;15.01;77.76;101539.75;6220699;23;20458;-75
2022/10/10 10:56:07;;;;;;;7.05;5.43;;;;;;;15.06;77.54;101541.06;6220988;23;20041;-75
2022/10/10 10:58:55;;;;;;;7.82;5.70;;;;;;;15.11;77.66;101549.25;6221114;23;20096;-75
2022/10/10 11:01:59;;;;;;;8.23;5.43;;;;;;;15.09;77.47;101550.91;6220660;23;20032;-74
2022/10/10 11:04:39;;;;;;;12.27;6.07;;;;;;;15.27;77.80;101554.25;6220847;23;20021;-75
2022/10/10 11:07:33;;;;;;;9.10;6.03;;;;;;;15.49;77.35;101559.41;6221021;23;20096;-75
2022/10/10 11:10:17;;;;;;;7.03;5.30;;;;;;;15.64;77.20;101554.13;6220937;23;20044;-74
2022/10/10 11:13:16;;;;;;;16.80;5.70;;;;;;;15.66;77.09;101568.59;6221037;23;20104;-74
2022/10/10 11:16:03;;;;;;;14.68;5.30;;;;;;;15.59;77.23;101573.56;6164349;23;20116;-74
2022/10/10 11:18:45;;;;;;;10.95;5.40;;;;;;;15.56;77.49;101561.81;6221983;23;20020;-74
2022/10/10 11:21:18;;;;;;;8.23;5.13;;;;;;;15.53;77.30;101578.78;6221968;23;20463;-74
2022/10/10 11:23:53;;;;;;;11.23;5.70;;;;;;;15.48;77.49;101584.75;6222023;23;20085;-73
2022/10/10 11:26:29;;;;;;;11.20;5.35;;;;;;;15.50;77.77;101587.72;6222077;23;20096;-74
2022/10/10 11:29:03;;;;;;;9.30;5.30;;;;;;;15.56;77.75;101577.13;6195062;23;20092;-74
2022/10/10 11:31:36;;;;;;;9.90;5.07;;;;;;;15.79;78.35;101583.75;6195041;23;20092;-74
2022/10/10 11:34:11;;;;;;;10.48;5.65;;;;;;;15.88;77.20;101583.72;6221858;23;20111;-74
2022/10/10 11:36:42;;;;;;;7.57;5.40;;;;;;;15.90;77.49;101579.38;6221922;23;20044;-74
2022/10/10 11:39:25;;;;;;;12.93;5.60;;;;;;;15.98;77.17;101580.53;6221939;23;20017;-74
2022/10/10 11:42:01;;;;;;;11.18;5.32;;;;;;;16.02;76.87;101581.06;6221505;23;20092;-75
2022/10/10 11:44:39;;;;;;;10.07;5.30;;;;;;;16.04;76.93;101583.31;6221408;23;20025;-75
2022/10/10 11:47:10;;;;;;;14.25;5.20;;;;;;;15.98;76.93;101580.53;6221899;23;20512;-74
2022/10/10 11:49:41;;;;;;;;;;;;;;;15.93;77.54;101577.72;6222499;23;20417;-74
2022/10/10 11:52:33;;;;;;;8.98;6.07;;;;;;;15.81;77.53;101579.41;6221987;23;19951;-74